CJP9 weather

Charlot River Airport
Charlot River, Saskatchewan, Canada

Public forecast

Using degrees Celsius for public forecast. Weather courtesy of forecast.io.

Closest aviation weather report (METAR) to Charlot River Airport

Closest report is Fort Chipewyan Airport, 78.9 nm (146.0 km) SW. Retrieved 2020/07/15 10:19 UTC (0 seconds ago):

CYPY 151019Z AUTO 30010G19KT 2SM BR OVC006 13/12 A2955 RMK SLP015 DENSITY ALT 1000FT

Closest aviation forecast (TAF) to Charlot River Airport

Forecast is more than 6 hours old.

Closest forecast is Fort Chipewyan Airport, 78.9 nm (146.0 km) SW. Retrieved 2020-07-15 00:00 UTC (10 hours ago):

TAF CYPY 142341Z 1500/1506 30012G22KT 5SM -SHRA VCTS BKN015CB OVC040 TEMPO 1500/1503 P6SM NSW SCT015 OVC040 FM150300 30010KT P6SM SCT005 BKN020 TEMPO 1503/1506 2SM -SHRA BR OVC005 RMK FCST BASED ON AUTO OBS NXT FCST WILL BE ISSUED AT 151145Z